createdAt,value
2018-03-27T00:00:50.751Z,76.42
2018-03-27T00:03:19.091Z,76.28
2018-03-27T00:05:48.423Z,76.62
2018-03-27T00:08:16.743Z,76.26
2018-03-27T00:10:45.095Z,76.48
2018-03-27T00:13:13.412Z,76.02
2018-03-27T00:15:41.830Z,76.33
2018-03-27T00:18:10.210Z,76.30
2018-03-27T00:20:38.566Z,76.17
2018-03-27T00:23:06.899Z,76.50
2018-03-27T00:25:35.343Z,75.98
2018-03-27T00:28:15.467Z,75.95
2018-03-27T00:30:55.891Z,75.51
2018-03-27T00:33:35.995Z,75.25
2018-03-27T00:36:16.314Z,75.57
2018-03-27T00:38:56.745Z,75.56
2018-03-27T00:44:36.124Z,75.35
2018-03-27T00:47:04.566Z,75.34
2018-03-27T00:49:32.941Z,75.85
2018-03-27T00:52:01.321Z,75.86
2018-03-27T00:54:29.702Z,75.82
2018-03-27T00:56:58.057Z,76.10
2018-03-27T00:59:26.411Z,76.30
2018-03-27T01:01:54.941Z,76.51
2018-03-27T01:04:27.289Z,75.00
2018-03-27T01:06:55.698Z,75.70
2018-03-27T01:09:24.026Z,76.11
2018-03-27T01:11:52.397Z,75.69
2018-03-27T01:14:20.763Z,75.22
2018-03-27T01:16:50.115Z,74.74
2018-03-27T01:19:18.411Z,74.35
2018-03-27T01:21:46.791Z,75.13
2018-03-27T01:24:15.271Z,74.58
2018-03-27T01:26:44.566Z,75.21
2018-03-27T01:29:12.955Z,75.03
2018-03-27T01:31:41.282Z,75.49
2018-03-27T01:34:09.640Z,75.68
2018-03-27T01:36:37.983Z,75.22
2018-03-27T01:39:06.550Z,75.62
2018-03-27T01:41:34.878Z,75.20
2018-03-27T01:44:03.236Z,75.38
2018-03-27T01:46:31.569Z,74.92
2018-03-27T01:48:59.929Z,74.45
2018-03-27T01:51:28.341Z,74.12
2018-03-27T01:53:56.746Z,74.86
2018-03-27T01:56:25.103Z,75.08
2018-03-27T01:58:53.480Z,76.00
2018-03-27T02:01:21.805Z,75.37
2018-03-27T02:03:50.175Z,75.29
2018-03-27T02:06:18.719Z,75.95
2018-03-27T02:08:47.071Z,75.77
2018-03-27T02:11:20.870Z,75.83
2018-03-27T02:13:55.935Z,76.48
2018-03-27T02:16:30.019Z,75.66
2018-03-27T02:19:04.072Z,76.25
2018-03-27T02:21:31.857Z,75.81
2018-03-27T02:24:03.014Z,76.86
2018-03-27T02:26:31.421Z,75.93
2018-03-27T02:28:59.822Z,76.37
2018-03-27T02:31:28.202Z,75.99
2018-03-27T02:33:56.582Z,76.37
2018-03-27T02:36:24.953Z,76.10
2018-03-27T02:38:53.336Z,75.29
2018-03-27T02:41:21.706Z,75.46
2018-03-27T02:43:50.047Z,76.21
2018-03-27T02:46:18.409Z,77.24
2018-03-27T02:48:46.739Z,77.12
2018-03-27T02:51:16.027Z,77.61
2018-03-27T02:53:44.372Z,77.57
2018-03-27T02:56:12.736Z,77.18
2018-03-27T02:58:41.094Z,76.93
2018-03-27T03:01:09.460Z,77.78
2018-03-27T03:03:37.787Z,77.58
2018-03-27T03:06:06.214Z,77.78
2018-03-27T03:08:34.570Z,77.03
2018-03-27T03:11:02.967Z,76.30
2018-03-27T03:13:31.309Z,77.03
2018-03-27T03:15:59.663Z,76.58
2018-03-27T03:18:28.059Z,77.52
2018-03-27T03:20:56.490Z,77.50
2018-03-27T03:23:24.843Z,76.21
2018-03-27T03:25:53.275Z,76.20
2018-03-27T03:28:21.697Z,76.25
2018-03-27T03:30:49.979Z,76.24
2018-03-27T03:33:18.390Z,76.10
2018-03-27T03:35:46.766Z,75.47
2018-03-27T03:38:15.138Z,75.90
2018-03-27T03:40:43.627Z,75.52
2018-03-27T03:43:12.002Z,76.40
2018-03-27T03:45:40.338Z,75.82
2018-03-27T03:48:08.770Z,76.29
2018-03-27T03:50:37.136Z,75.41
2018-03-27T03:53:05.585Z,75.90
2018-03-27T03:55:33.859Z,75.13
2018-03-27T03:58:02.215Z,74.92
2018-03-27T04:00:30.709Z,75.24
2018-03-27T04:02:59.127Z,75.69
2018-03-27T04:05:27.523Z,76.25
2018-03-27T04:07:55.891Z,75.91
2018-03-27T04:10:24.226Z,75.62
2018-03-27T04:12:52.594Z,75.87
2018-03-27T04:15:20.922Z,76.80
2018-03-27T04:17:49.291Z,77.26
2018-03-27T04:20:17.673Z,76.64
2018-03-27T04:22:46.982Z,76.82
2018-03-27T04:25:15.292Z,76.95
2018-03-27T04:27:43.617Z,76.07
2018-03-27T04:30:11.983Z,76.18
2018-03-27T04:32:40.485Z,75.66
2018-03-27T04:35:08.851Z,75.55
2018-03-27T04:37:37.195Z,76.17
2018-03-27T04:40:05.563Z,76.63
2018-03-27T04:42:33.991Z,76.21
2018-03-27T04:45:02.367Z,76.82
2018-03-27T04:47:30.692Z,76.26
2018-03-27T04:49:59.055Z,75.71
2018-03-27T04:52:27.454Z,77.29
2018-03-27T04:54:55.782Z,76.59
2018-03-27T04:57:24.184Z,77.41
2018-03-27T04:59:52.546Z,77.35
2018-03-27T05:02:20.920Z,77.47
2018-03-27T05:04:49.305Z,77.60
2018-03-27T05:07:17.660Z,78.02
2018-03-27T05:09:46.066Z,77.87
2018-03-27T05:12:14.401Z,77.57
2018-03-27T05:14:42.816Z,78.06
2018-03-27T05:17:11.172Z,77.08
2018-03-27T05:19:39.549Z,78.51
2018-03-27T05:22:08.033Z,79.32
2018-03-27T05:24:37.451Z,80.16
2018-03-27T05:27:05.818Z,80.05
2018-03-27T05:29:34.206Z,80.42
2018-03-27T05:32:02.578Z,79.89
2018-03-27T05:34:30.959Z,78.73
2018-03-27T05:36:59.326Z,79.53
2018-03-27T05:39:27.764Z,78.97
2018-03-27T05:41:56.109Z,78.99
2018-03-27T05:44:24.479Z,79.52
2018-03-27T05:46:52.854Z,78.45
2018-03-27T05:49:21.211Z,78.57
2018-03-27T05:51:49.648Z,79.43
2018-03-27T05:54:17.927Z,79.65
2018-03-27T05:56:46.271Z,78.25
2018-03-27T05:59:14.649Z,79.46
2018-03-27T06:01:43.015Z,80.06
2018-03-27T06:04:11.347Z,80.21
2018-03-27T06:06:39.691Z,79.12
2018-03-27T06:09:08.010Z,79.32
2018-03-27T06:11:36.445Z,78.62
2018-03-27T06:14:04.794Z,78.56
2018-03-27T06:16:33.158Z,78.46
2018-03-27T06:19:01.497Z,78.80
2018-03-27T06:21:30.054Z,78.90
2018-03-27T06:23:58.434Z,79.05
2018-03-27T06:26:26.782Z,79.47
2018-03-27T06:28:55.189Z,79.83
2018-03-27T06:31:23.536Z,79.69
2018-03-27T06:33:51.921Z,79.78
2018-03-27T06:36:20.327Z,78.79
2018-03-27T06:38:48.714Z,79.75
2018-03-27T06:41:17.038Z,79.54
2018-03-27T06:43:45.455Z,80.15
2018-03-27T06:46:13.791Z,79.91
2018-03-27T06:48:42.219Z,81.08
2018-03-27T06:51:10.590Z,80.42
2018-03-27T06:53:38.974Z,80.74
2018-03-27T06:56:07.366Z,81.23
2018-03-27T06:58:35.730Z,80.83
2018-03-27T07:01:05.036Z,81.03
2018-03-27T07:03:33.486Z,80.82
2018-03-27T07:06:01.787Z,80.83
2018-03-27T07:08:30.141Z,81.13
2018-03-27T07:10:58.511Z,80.70
2018-03-27T07:13:26.894Z,80.91
2018-03-27T07:15:55.249Z,80.11
2018-03-27T07:18:24.500Z,79.01
2018-03-27T07:20:52.881Z,80.17
2018-03-27T07:23:21.263Z,80.11
2018-03-27T07:25:49.742Z,79.13
2018-03-27T07:28:18.072Z,78.62
2018-03-27T07:30:46.447Z,80.24
2018-03-27T07:33:14.774Z,80.29
2018-03-27T07:35:43.133Z,79.40
2018-03-27T07:38:11.530Z,78.85
2018-03-27T07:40:39.998Z,78.88
2018-03-27T07:43:08.391Z,78.87
2018-03-27T07:45:36.786Z,77.51
2018-03-27T07:48:05.674Z,79.21
2018-03-27T07:50:34.133Z,78.23
2018-03-27T07:53:02.459Z,78.19
2018-03-27T07:55:30.838Z,78.04
2018-03-27T07:57:59.174Z,77.04
2018-03-27T08:00:27.542Z,76.90
2018-03-27T08:02:55.873Z,76.33
2018-03-27T08:05:24.236Z,75.58
2018-03-27T08:07:52.569Z,77.12
2018-03-27T08:10:20.976Z,76.11
2018-03-27T08:12:49.303Z,76.69
2018-03-27T08:15:17.707Z,76.19
2018-03-27T08:17:46.071Z,75.75
2018-03-27T08:20:14.435Z,74.70
2018-03-27T08:22:43.438Z,72.86
2018-03-27T08:25:11.723Z,72.23
2018-03-27T08:27:40.081Z,71.39
2018-03-27T08:30:08.412Z,69.23
2018-03-27T08:32:36.764Z,69.86
2018-03-27T08:35:05.117Z,70.51
2018-03-27T08:37:33.472Z,67.69
2018-03-27T08:40:01.841Z,68.33
2018-03-27T08:42:30.202Z,68.12
2018-03-27T08:44:58.535Z,67.84
2018-03-27T08:47:26.927Z,70.05
2018-03-27T08:49:55.255Z,69.38
2018-03-27T08:52:23.632Z,68.20
2018-03-27T08:54:51.987Z,65.33
2018-03-27T08:57:20.355Z,67.09
2018-03-27T08:59:48.704Z,66.17
2018-03-27T09:02:17.062Z,64.88
2018-03-27T09:04:45.400Z,64.88
2018-03-27T09:07:13.738Z,66.96
2018-03-27T09:09:42.172Z,67.47
2018-03-27T09:12:10.536Z,66.61
2018-03-27T09:14:38.906Z,65.89
2018-03-27T09:17:07.262Z,67.08
2018-03-27T09:19:35.658Z,66.95
2018-03-27T09:22:03.996Z,66.03
2018-03-27T09:24:32.352Z,64.70
2018-03-27T09:27:00.727Z,64.53
2018-03-27T09:29:29.105Z,63.21
2018-03-27T09:31:57.447Z,61.38
2018-03-27T09:34:25.803Z,63.27
2018-03-27T09:36:54.210Z,59.27
2018-03-27T09:39:22.643Z,59.75
2018-03-27T09:41:50.971Z,58.67
2018-03-27T09:44:19.315Z,57.34
2018-03-27T09:46:47.658Z,56.63
2018-03-27T09:49:15.998Z,55.85
2018-03-27T09:51:44.366Z,55.70
2018-03-27T09:54:12.746Z,55.22
2018-03-27T09:56:41.842Z,56.51
2018-03-27T09:59:10.200Z,54.38
2018-03-27T10:01:40.357Z,54.66
2018-03-27T10:04:08.725Z,55.70
2018-03-27T10:06:37.039Z,54.27
2018-03-27T10:09:05.389Z,54.34
2018-03-27T10:11:33.751Z,54.54
2018-03-27T10:14:02.177Z,49.32
2018-03-27T10:16:31.480Z,48.93
2018-03-27T10:18:59.851Z,48.62
2018-03-27T10:21:28.168Z,49.89
2018-03-27T10:23:56.503Z,48.61
2018-03-27T10:26:24.935Z,49.40
2018-03-27T10:28:53.319Z,51.04
2018-03-27T10:31:21.702Z,51.17
2018-03-27T10:33:50.018Z,46.24
2018-03-27T10:36:18.370Z,46.62
2018-03-27T10:38:46.686Z,47.78
2018-03-27T10:41:15.050Z,47.96
2018-03-27T10:43:43.364Z,47.79
2018-03-27T10:46:11.758Z,46.42
2018-03-27T10:48:40.155Z,47.45
2018-03-27T10:51:08.504Z,46.64
2018-03-27T10:53:36.891Z,45.92
2018-03-27T10:56:05.311Z,47.72
2018-03-27T10:58:33.619Z,48.69
2018-03-27T11:01:01.981Z,47.07
2018-03-27T11:03:30.287Z,46.34
2018-03-27T11:05:58.651Z,45.97
2018-03-27T11:08:27.979Z,46.49
2018-03-27T11:10:56.350Z,45.14
2018-03-27T11:13:24.738Z,44.44
2018-03-27T11:15:53.090Z,44.15
2018-03-27T11:18:21.406Z,43.10
2018-03-27T11:20:50.035Z,41.94
2018-03-27T11:23:18.454Z,43.53
2018-03-27T11:25:46.790Z,44.59
2018-03-27T11:28:15.206Z,43.55
2018-03-27T11:30:43.548Z,42.45
2018-03-27T11:33:11.899Z,39.64
2018-03-27T11:35:40.231Z,40.70
2018-03-27T11:38:08.579Z,37.97
2018-03-27T11:40:37.015Z,37.85
2018-03-27T11:43:05.402Z,36.20
2018-03-27T11:45:33.772Z,34.33
2018-03-27T11:48:02.195Z,33.96
2018-03-27T11:50:30.539Z,34.43
2018-03-27T11:52:59.027Z,33.15
2018-03-27T11:55:28.382Z,32.73
2018-03-27T11:57:56.732Z,30.09
2018-03-27T12:00:25.142Z,30.71
2018-03-27T12:02:54.567Z,28.18
2018-03-27T12:05:22.883Z,27.13
2018-03-27T12:07:51.240Z,27.70
2018-03-27T12:10:19.612Z,26.61
2018-03-27T12:12:48.071Z,25.37
2018-03-27T12:15:16.542Z,24.11
2018-03-27T12:17:44.894Z,24.66
2018-03-27T12:20:13.206Z,23.95
2018-03-27T12:22:41.634Z,22.30
2018-03-27T12:25:10.008Z,23.16
2018-03-27T12:27:38.324Z,20.86
2018-03-27T12:30:06.728Z,21.41
2018-03-27T12:32:35.073Z,22.90
2018-03-27T12:35:04.400Z,26.96
2018-03-27T12:37:32.817Z,27.42
2018-03-27T12:40:02.088Z,28.84
2018-03-27T12:42:30.424Z,28.26
2018-03-27T12:44:58.780Z,29.52
2018-03-27T12:47:27.967Z,30.64
2018-03-27T12:49:56.319Z,31.71
2018-03-27T12:52:24.664Z,33.03
2018-03-27T12:54:53.063Z,33.75
2018-03-27T12:57:21.442Z,33.92
2018-03-27T12:59:49.810Z,33.66
2018-03-27T13:02:18.145Z,34.16
2018-03-27T13:04:46.490Z,35.67
2018-03-27T13:07:14.806Z,35.79
2018-03-27T13:09:43.168Z,39.91
2018-03-27T13:12:11.516Z,42.74
2018-03-27T13:14:39.875Z,43.63
2018-03-27T13:17:08.286Z,43.65
2018-03-27T13:19:36.647Z,44.49
2018-03-27T13:22:05.029Z,44.18
2018-03-27T13:24:33.547Z,42.85
2018-03-27T13:27:01.895Z,45.62
2018-03-27T13:29:30.230Z,45.65
2018-03-27T13:31:58.590Z,45.70
2018-03-27T13:34:27.025Z,42.13
2018-03-27T13:36:55.462Z,37.25
2018-03-27T13:39:23.826Z,32.15
2018-03-27T13:41:52.190Z,31.32
2018-03-27T13:44:20.633Z,28.35
2018-03-27T13:46:48.998Z,27.26
2018-03-27T13:49:17.341Z,25.68
2018-03-27T13:51:45.771Z,25.04
2018-03-27T13:54:14.159Z,24.56
2018-03-27T13:56:42.519Z,24.62
2018-03-27T13:59:10.906Z,22.45
2018-03-27T14:01:39.275Z,21.93
2018-03-27T14:04:07.602Z,20.90
2018-03-27T14:06:35.978Z,22.49
2018-03-27T14:09:04.296Z,22.55
2018-03-27T14:11:32.654Z,21.70
2018-03-27T14:14:01.062Z,26.38
2018-03-27T14:16:29.423Z,27.43
2018-03-27T14:18:57.765Z,25.21
2018-03-27T14:21:26.198Z,26.14
2018-03-27T14:23:54.542Z,28.39
2018-03-27T14:26:23.262Z,30.80
2018-03-27T14:28:51.597Z,33.17
2018-03-27T14:31:19.944Z,34.81
2018-03-27T14:33:48.307Z,33.64
2018-03-27T14:36:16.687Z,33.15
2018-03-27T14:38:45.056Z,33.42
2018-03-27T14:41:13.383Z,35.22
2018-03-27T14:43:41.919Z,36.18
2018-03-27T14:46:10.247Z,37.17
2018-03-27T14:48:38.595Z,37.63
2018-03-27T14:51:06.930Z,41.28
2018-03-27T14:53:35.328Z,43.10
2018-03-27T14:56:03.668Z,44.16
2018-03-27T14:58:32.084Z,38.84
2018-03-27T15:01:00.414Z,33.42
2018-03-27T15:03:28.768Z,34.01
2018-03-27T15:05:57.093Z,36.64
2018-03-27T15:08:25.499Z,33.36
2018-03-27T15:10:53.831Z,34.96
2018-03-27T15:13:22.188Z,36.65
2018-03-27T15:15:50.519Z,35.94
2018-03-27T15:18:18.912Z,35.55
2018-03-27T15:20:47.325Z,33.96
2018-03-27T15:23:15.653Z,30.95
2018-03-27T15:25:43.998Z,30.43
2018-03-27T15:28:12.435Z,29.04
2018-03-27T15:30:40.779Z,29.03
2018-03-27T15:33:09.195Z,32.49
2018-03-27T15:35:37.561Z,33.95
2018-03-27T15:38:06.047Z,33.83
2018-03-27T15:40:34.378Z,32.87
2018-03-27T15:43:02.792Z,31.17
2018-03-27T15:45:31.153Z,29.43
2018-03-27T15:47:59.480Z,29.15
2018-03-27T15:50:27.843Z,31.17
2018-03-27T15:52:56.167Z,31.00
2018-03-27T15:55:24.523Z,29.63
2018-03-27T15:57:52.870Z,32.20
2018-03-27T16:00:21.225Z,33.45
2018-03-27T16:02:49.550Z,34.81
2018-03-27T16:05:17.903Z,35.59
2018-03-27T16:07:46.233Z,35.32
2018-03-27T16:10:14.586Z,32.27
2018-03-27T16:12:42.906Z,27.89
2018-03-27T16:15:11.343Z,25.81
2018-03-27T16:17:39.670Z,26.32
2018-03-27T16:20:08.268Z,30.67
2018-03-27T16:22:36.607Z,32.72
2018-03-27T16:25:04.925Z,33.31
2018-03-27T16:27:33.291Z,35.09
2018-03-27T16:30:01.685Z,36.39
2018-03-27T16:32:30.039Z,36.72
2018-03-27T16:34:58.360Z,38.09
2018-03-27T16:37:26.827Z,39.29
2018-03-27T16:39:55.146Z,39.90
2018-03-27T16:42:23.482Z,40.55
2018-03-27T16:44:51.881Z,41.04
2018-03-27T16:47:20.227Z,40.21
2018-03-27T16:49:48.569Z,38.74
2018-03-27T16:52:16.918Z,40.32
2018-03-27T16:54:45.252Z,41.85
2018-03-27T16:57:13.638Z,42.52
2018-03-27T16:59:42.011Z,42.81
2018-03-27T17:02:10.356Z,43.65
2018-03-27T17:04:38.777Z,44.14
2018-03-27T17:07:07.184Z,44.53
2018-03-27T17:09:35.540Z,44.93
2018-03-27T17:12:03.918Z,44.05
2018-03-27T17:14:32.227Z,44.94
2018-03-27T17:17:00.595Z,45.05
2018-03-27T17:19:28.931Z,45.64
2018-03-27T17:21:57.268Z,45.75
2018-03-27T17:24:25.582Z,45.77
2018-03-27T17:26:54.047Z,46.37
2018-03-27T17:29:22.457Z,46.99
2018-03-27T17:31:50.786Z,47.35
2018-03-27T17:34:19.230Z,47.77
2018-03-27T17:36:47.556Z,48.17
2018-03-27T17:39:15.886Z,48.21
2018-03-27T17:41:44.248Z,48.47
2018-03-27T17:44:12.937Z,49.06
2018-03-27T17:46:41.282Z,49.21
2018-03-27T17:49:09.691Z,49.62
2018-03-27T17:51:38.024Z,49.48
2018-03-27T17:54:06.335Z,49.68
2018-03-27T17:56:34.679Z,50.22
2018-03-27T17:59:02.989Z,50.63
2018-03-27T18:01:31.345Z,50.73
2018-03-27T18:03:59.763Z,50.94
2018-03-27T18:06:28.162Z,51.07
2018-03-27T18:08:56.502Z,51.53
2018-03-27T18:11:24.979Z,51.84
2018-03-27T18:13:53.376Z,51.55
2018-03-27T18:16:21.778Z,51.97
2018-03-27T18:18:50.109Z,52.74
2018-03-27T18:21:18.431Z,52.62
2018-03-27T18:23:46.814Z,52.55
2018-03-27T18:26:15.126Z,53.23
2018-03-27T18:28:43.486Z,52.99
2018-03-27T18:31:11.804Z,53.08
2018-03-27T18:33:40.181Z,53.18
2018-03-27T18:36:08.573Z,53.89
2018-03-27T18:38:36.936Z,53.67
2018-03-27T18:41:05.332Z,53.56
2018-03-27T18:43:33.650Z,53.98
2018-03-27T18:46:02.003Z,54.08
2018-03-27T18:48:30.356Z,54.11
2018-03-27T18:50:58.720Z,54.10
2018-03-27T18:53:27.102Z,54.10
2018-03-27T18:55:55.443Z,53.68
2018-03-27T18:58:23.789Z,54.10
2018-03-27T19:00:52.118Z,54.23
2018-03-27T19:03:20.466Z,54.53
2018-03-27T19:05:48.896Z,54.62
2018-03-27T19:08:17.227Z,54.80
2018-03-27T19:10:45.567Z,55.17
2018-03-27T19:13:13.905Z,55.04
2018-03-27T19:15:42.411Z,55.24
2018-03-27T19:18:10.749Z,55.05
2018-03-27T19:20:39.081Z,55.50
2018-03-27T19:23:07.492Z,55.72
2018-03-27T19:25:36.719Z,55.89
2018-03-27T19:28:05.063Z,55.72
2018-03-27T19:30:33.398Z,56.02
2018-03-27T19:33:01.749Z,56.27
2018-03-27T19:35:30.158Z,56.43
2018-03-27T19:37:58.482Z,56.30
2018-03-27T19:40:26.810Z,56.49
2018-03-27T19:42:55.182Z,56.71
2018-03-27T19:45:23.513Z,56.39
2018-03-27T19:47:51.937Z,56.37
2018-03-27T19:50:20.269Z,56.66
2018-03-27T19:52:48.588Z,56.54
2018-03-27T19:55:16.919Z,56.12
2018-03-27T19:57:45.347Z,56.27
2018-03-27T20:00:13.677Z,56.12
2018-03-27T20:02:42.114Z,55.35
2018-03-27T20:05:10.504Z,55.15
2018-03-27T20:07:38.898Z,54.89
2018-03-27T20:10:07.250Z,54.80
2018-03-27T20:12:36.551Z,55.01
2018-03-27T20:15:05.861Z,54.83
2018-03-27T20:17:34.236Z,54.26
2018-03-27T20:20:02.555Z,55.07
2018-03-27T20:22:30.902Z,54.61
2018-03-27T20:24:59.221Z,54.92
2018-03-27T20:27:27.892Z,55.11
2018-03-27T20:29:56.213Z,55.18
2018-03-27T20:32:24.566Z,54.61
2018-03-27T20:34:52.902Z,55.10
2018-03-27T20:37:21.290Z,55.04
2018-03-27T20:39:49.636Z,54.92
2018-03-27T20:42:17.995Z,55.38
2018-03-27T20:44:46.379Z,54.25
2018-03-27T20:47:14.788Z,53.76
2018-03-27T20:49:43.127Z,53.47
2018-03-27T20:52:11.535Z,53.01
2018-03-27T20:54:39.862Z,53.35
2018-03-27T20:57:08.270Z,53.49
2018-03-27T20:59:36.590Z,53.67
2018-03-27T21:02:04.921Z,53.30
2018-03-27T21:04:33.316Z,53.26
2018-03-27T21:07:01.789Z,53.28
2018-03-27T21:09:30.109Z,53.79
2018-03-27T21:11:58.438Z,53.58
2018-03-27T21:14:26.755Z,53.82
2018-03-27T21:16:55.091Z,53.95
2018-03-27T21:19:23.403Z,53.54
2018-03-27T21:21:51.739Z,52.62
2018-03-27T21:24:20.050Z,52.00
2018-03-27T21:26:48.401Z,52.25
2018-03-27T21:29:16.722Z,52.08
2018-03-27T21:31:45.165Z,50.89
2018-03-27T21:34:13.497Z,50.74
2018-03-27T21:36:41.928Z,50.84
2018-03-27T21:39:10.259Z,50.84
2018-03-27T21:41:38.574Z,49.42
2018-03-27T21:44:06.966Z,49.62
2018-03-27T21:46:35.285Z,48.98
2018-03-27T21:49:03.621Z,49.21
2018-03-27T21:51:31.947Z,49.47
2018-03-27T21:54:00.307Z,49.94
2018-03-27T21:56:28.744Z,50.75
2018-03-27T21:58:57.091Z,51.10
2018-03-27T22:01:25.409Z,52.16
2018-03-27T22:03:53.747Z,52.86
2018-03-27T22:06:25.947Z,53.67
2018-03-27T22:08:54.280Z,54.14
2018-03-27T22:11:22.699Z,55.08
2018-03-27T22:13:51.039Z,55.99
2018-03-27T22:16:19.354Z,57.20
2018-03-27T22:18:47.681Z,58.99
2018-03-27T22:21:16.025Z,59.46
2018-03-27T22:23:44.342Z,59.37
2018-03-27T22:26:12.664Z,59.71
2018-03-27T22:28:41.009Z,60.72
2018-03-27T22:31:09.318Z,59.99
2018-03-27T22:33:37.662Z,60.02
2018-03-27T22:36:06.085Z,60.64
2018-03-27T22:38:34.660Z,61.32
2018-03-27T22:41:02.990Z,61.78
2018-03-27T22:43:31.322Z,62.28
2018-03-27T22:45:59.639Z,62.29
2018-03-27T22:48:27.971Z,63.03
2018-03-27T22:50:56.295Z,63.74
2018-03-27T22:53:24.664Z,63.31
2018-03-27T22:55:52.994Z,63.66
2018-03-27T22:58:21.327Z,64.86
2018-03-27T23:00:49.639Z,63.71
2018-03-27T23:03:17.974Z,64.33
2018-03-27T23:05:46.294Z,64.95
2018-03-27T23:08:14.664Z,64.56
2018-03-27T23:10:43.058Z,65.13
2018-03-27T23:13:11.400Z,64.81
2018-03-27T23:15:39.900Z,64.55
2018-03-27T23:18:08.286Z,65.21
2018-03-27T23:20:36.629Z,65.66
2018-03-27T23:23:04.976Z,65.98
2018-03-27T23:25:33.288Z,66.20
2018-03-27T23:28:01.623Z,68.83
2018-03-27T23:30:29.971Z,66.81
2018-03-27T23:32:58.311Z,68.19
2018-03-27T23:35:26.643Z,67.86
2018-03-27T23:37:55.011Z,68.49
2018-03-27T23:40:23.403Z,68.27
2018-03-27T23:42:51.783Z,68.66
2018-03-27T23:45:20.108Z,68.41
2018-03-27T23:47:48.431Z,68.38
2018-03-27T23:50:16.806Z,68.51
2018-03-27T23:52:45.150Z,68.82
2018-03-27T23:55:13.505Z,69.20
2018-03-27T23:57:41.941Z,69.55
